sensor_id;sensor_type;location;lat;lon;timestamp;temperature;humidity
65598;SHT31;52267;51.984;20.956;2023-05-25T00:00:41;13.69;79.53
65598;SHT31;52267;51.984;20.956;2023-05-25T00:03:28;13.68;79.78
65598;SHT31;52267;51.984;20.956;2023-05-25T00:05:56;13.65;79.33
65598;SHT31;52267;51.984;20.956;2023-05-25T00:08:24;13.62;79.43
65598;SHT31;52267;51.984;20.956;2023-05-25T00:10:51;13.58;79.45
65598;SHT31;52267;51.984;20.956;2023-05-25T00:13:18;13.55;79.61
65598;SHT31;52267;51.984;20.956;2023-05-25T00:15:45;13.55;79.71
65598;SHT31;52267;51.984;20.956;2023-05-25T00:18:12;13.52;79.72
65598;SHT31;52267;51.984;20.956;2023-05-25T00:20:39;13.49;79.67
65598;SHT31;52267;51.984;20.956;2023-05-25T00:23:06;13.44;79.94
65598;SHT31;52267;51.984;20.956;2023-05-25T00:25:33;13.41;80.18
65598;SHT31;52267;51.984;20.956;2023-05-25T00:28:00;13.40;80.30
65598;SHT31;52267;51.984;20.956;2023-05-25T00:30:29;13.40;80.00
65598;SHT31;52267;51.984;20.956;2023-05-25T00:32:56;13.39;79.95
65598;SHT31;52267;51.984;20.956;2023-05-25T00:35:25;13.37;80.17
65598;SHT31;52267;51.984;20.956;2023-05-25T00:37:52;13.36;80.65
65598;SHT31;52267;51.984;20.956;2023-05-25T00:40:19;13.37;81.17
65598;SHT31;52267;51.984;20.956;2023-05-25T00:42:47;13.40;80.66
65598;SHT31;52267;51.984;20.956;2023-05-25T00:45:14;13.40;80.62
65598;SHT31;52267;51.984;20.956;2023-05-25T00:47:41;13.38;80.80
65598;SHT31;52267;51.984;20.956;2023-05-25T00:50:10;13.37;80.72
65598;SHT31;52267;51.984;20.956;2023-05-25T00:52:42;13.38;80.94
65598;SHT31;52267;51.984;20.956;2023-05-25T00:55:09;13.38;80.86
65598;SHT31;52267;51.984;20.956;2023-05-25T00:57:39;13.38;81.41
65598;SHT31;52267;51.984;20.956;2023-05-25T01:00:11;13.38;81.70
65598;SHT31;52267;51.984;20.956;2023-05-25T01:02:40;13.39;81.65
65598;SHT31;52267;51.984;20.956;2023-05-25T01:05:09;13.40;81.45
65598;SHT31;52267;51.984;20.956;2023-05-25T01:07:37;13.38;81.72
65598;SHT31;52267;51.984;20.956;2023-05-25T01:10:07;13.37;81.84
65598;SHT31;52267;51.984;20.956;2023-05-25T01:12:36;13.40;81.80
65598;SHT31;52267;51.984;20.956;2023-05-25T01:15:04;13.42;81.68
65598;SHT31;52267;51.984;20.956;2023-05-25T01:17:33;13.43;81.91
65598;SHT31;52267;51.984;20.956;2023-05-25T01:20:03;13.44;82.10
65598;SHT31;52267;51.984;20.956;2023-05-25T01:22:48;13.46;81.72
65598;SHT31;52267;51.984;20.956;2023-05-25T01:25:28;13.46;81.69
65598;SHT31;52267;51.984;20.956;2023-05-25T01:27:59;13.49;82.07
65598;SHT31;52267;51.984;20.956;2023-05-25T01:30:33;13.51;82.14
65598;SHT31;52267;51.984;20.956;2023-05-25T01:33:03;13.54;82.27
65598;SHT31;52267;51.984;20.956;2023-05-25T01:35:31;13.56;82.42
65598;SHT31;52267;51.984;20.956;2023-05-25T01:37:59;13.57;82.33
65598;SHT31;52267;51.984;20.956;2023-05-25T01:40:27;13.56;81.78
65598;SHT31;52267;51.984;20.956;2023-05-25T01:42:54;13.56;82.22
65598;SHT31;52267;51.984;20.956;2023-05-25T01:45:21;13.56;82.52
65598;SHT31;52267;51.984;20.956;2023-05-25T01:50:32;13.55;82.05
65598;SHT31;52267;51.984;20.956;2023-05-25T01:53:15;13.55;82.22
65598;SHT31;52267;51.984;20.956;2023-05-25T01:55:54;13.56;81.85
65598;SHT31;52267;51.984;20.956;2023-05-25T01:58:25;13.55;81.76
65598;SHT31;52267;51.984;20.956;2023-05-25T02:00:54;13.53;82.22
65598;SHT31;52267;51.984;20.956;2023-05-25T02:03:22;13.51;82.59
65598;SHT31;52267;51.984;20.956;2023-05-25T02:05:50;13.53;82.52
65598;SHT31;52267;51.984;20.956;2023-05-25T02:08:17;13.55;82.28
65598;SHT31;52267;51.984;20.956;2023-05-25T02:10:46;13.55;81.93
65598;SHT31;52267;51.984;20.956;2023-05-25T02:13:13;13.56;82.20
65598;SHT31;52267;51.984;20.956;2023-05-25T02:15:40;13.55;82.37
65598;SHT31;52267;51.984;20.956;2023-05-25T02:18:07;13.55;82.29
65598;SHT31;52267;51.984;20.956;2023-05-25T02:20:35;13.54;82.45
65598;SHT31;52267;51.984;20.956;2023-05-25T02:23:02;13.53;82.56
65598;SHT31;52267;51.984;20.956;2023-05-25T02:25:29;13.52;82.68
65598;SHT31;52267;51.984;20.956;2023-05-25T02:27:56;13.50;83.00
65598;SHT31;52267;51.984;20.956;2023-05-25T02:30:23;13.51;82.58
65598;SHT31;52267;51.984;20.956;2023-05-25T02:32:50;13.51;82.83
65598;SHT31;52267;51.984;20.956;2023-05-25T02:35:19;13.51;82.98
65598;SHT31;52267;51.984;20.956;2023-05-25T02:37:46;13.51;82.96
65598;SHT31;52267;51.984;20.956;2023-05-25T02:40:13;13.52;82.55
65598;SHT31;52267;51.984;20.956;2023-05-25T02:42:40;13.53;82.54
65598;SHT31;52267;51.984;20.956;2023-05-25T02:45:08;13.53;82.92
65598;SHT31;52267;51.984;20.956;2023-05-25T02:47:36;13.51;82.81
65598;SHT31;52267;51.984;20.956;2023-05-25T02:50:03;13.52;82.93
65598;SHT31;52267;51.984;20.956;2023-05-25T02:52:31;13.52;82.59
65598;SHT31;52267;51.984;20.956;2023-05-25T02:54:59;13.50;83.02
65598;SHT31;52267;51.984;20.956;2023-05-25T02:57:26;13.48;83.16
65598;SHT31;52267;51.984;20.956;2023-05-25T02:59:54;13.43;83.51
65598;SHT31;52267;51.984;20.956;2023-05-25T03:02:22;13.42;83.56
65598;SHT31;52267;51.984;20.956;2023-05-25T03:04:51;13.43;83.08
65598;SHT31;52267;51.984;20.956;2023-05-25T03:07:19;13.42;83.33
65598;SHT31;52267;51.984;20.956;2023-05-25T03:09:46;13.40;83.26
65598;SHT31;52267;51.984;20.956;2023-05-25T03:12:14;13.42;82.96
65598;SHT31;52267;51.984;20.956;2023-05-25T03:14:41;13.44;83.09
65598;SHT31;52267;51.984;20.956;2023-05-25T03:17:08;13.46;83.18
65598;SHT31;52267;51.984;20.956;2023-05-25T03:19:35;13.47;83.21
65598;SHT31;52267;51.984;20.956;2023-05-25T03:22:02;13.51;83.23
65598;SHT31;52267;51.984;20.956;2023-05-25T03:24:29;13.51;83.08
65598;SHT31;52267;51.984;20.956;2023-05-25T03:26:57;13.48;83.28
65598;SHT31;52267;51.984;20.956;2023-05-25T03:29:24;13.45;83.32
65598;SHT31;52267;51.984;20.956;2023-05-25T03:31:52;13.42;83.35
65598;SHT31;52267;51.984;20.956;2023-05-25T03:34:19;13.40;83.60
65598;SHT31;52267;51.984;20.956;2023-05-25T03:36:46;13.41;83.41
65598;SHT31;52267;51.984;20.956;2023-05-25T03:39:13;13.39;83.51
65598;SHT31;52267;51.984;20.956;2023-05-25T03:41:40;13.39;83.59
65598;SHT31;52267;51.984;20.956;2023-05-25T03:44:08;13.42;83.86
65598;SHT31;52267;51.984;20.956;2023-05-25T03:46:36;13.45;83.56
65598;SHT31;52267;51.984;20.956;2023-05-25T03:49:04;13.47;83.68
65598;SHT31;52267;51.984;20.956;2023-05-25T03:51:31;13.50;83.90
65598;SHT31;52267;51.984;20.956;2023-05-25T03:53:58;13.52;84.02
65598;SHT31;52267;51.984;20.956;2023-05-25T03:56:25;13.55;83.74
65598;SHT31;52267;51.984;20.956;2023-05-25T03:58:52;13.58;83.50
65598;SHT31;52267;51.984;20.956;2023-05-25T04:01:20;13.60;83.64
65598;SHT31;52267;51.984;20.956;2023-05-25T04:03:47;13.61;83.44
65598;SHT31;52267;51.984;20.956;2023-05-25T04:06:14;13.62;83.54
65598;SHT31;52267;51.984;20.956;2023-05-25T04:08:44;13.63;83.51
65598;SHT31;52267;51.984;20.956;2023-05-25T04:11:11;13.62;83.34
65598;SHT31;52267;51.984;20.956;2023-05-25T04:13:39;13.62;83.50
65598;SHT31;52267;51.984;20.956;2023-05-25T04:16:06;13.63;83.67
65598;SHT31;52267;51.984;20.956;2023-05-25T04:18:33;13.67;83.49
65598;SHT31;52267;51.984;20.956;2023-05-25T04:21:00;13.69;83.36
65598;SHT31;52267;51.984;20.956;2023-05-25T04:23:27;13.70;83.22
65598;SHT31;52267;51.984;20.956;2023-05-25T04:25:54;13.71;83.56
65598;SHT31;52267;51.984;20.956;2023-05-25T04:28:21;13.76;83.57
65598;SHT31;52267;51.984;20.956;2023-05-25T04:30:48;13.78;83.62
65598;SHT31;52267;51.984;20.956;2023-05-25T04:33:16;13.79;83.69
65598;SHT31;52267;51.984;20.956;2023-05-25T04:35:43;13.79;83.78
65598;SHT31;52267;51.984;20.956;2023-05-25T04:38:10;13.80;83.51
65598;SHT31;52267;51.984;20.956;2023-05-25T04:40:37;13.83;83.51
65598;SHT31;52267;51.984;20.956;2023-05-25T04:43:07;13.88;83.25
65598;SHT31;52267;51.984;20.956;2023-05-25T04:45:35;13.89;83.27
65598;SHT31;52267;51.984;20.956;2023-05-25T04:48:02;13.90;83.37
65598;SHT31;52267;51.984;20.956;2023-05-25T04:50:30;13.93;83.45
65598;SHT31;52267;51.984;20.956;2023-05-25T04:52:57;13.97;83.54
65598;SHT31;52267;51.984;20.956;2023-05-25T04:55:24;14.00;83.24
65598;SHT31;52267;51.984;20.956;2023-05-25T04:57:52;14.02;83.20
65598;SHT31;52267;51.984;20.956;2023-05-25T05:00:20;14.06;83.03
65598;SHT31;52267;51.984;20.956;2023-05-25T05:02:47;14.08;83.23
65598;SHT31;52267;51.984;20.956;2023-05-25T05:05:15;14.11;83.17
65598;SHT31;52267;51.984;20.956;2023-05-25T05:07:43;14.16;83.00
65598;SHT31;52267;51.984;20.956;2023-05-25T05:10:10;14.16;82.97
65598;SHT31;52267;51.984;20.956;2023-05-25T05:12:37;14.14;83.08
65598;SHT31;52267;51.984;20.956;2023-05-25T05:15:05;14.13;83.10
65598;SHT31;52267;51.984;20.956;2023-05-25T05:17:33;14.13;83.20
65598;SHT31;52267;51.984;20.956;2023-05-25T05:20:00;14.18;83.14
65598;SHT31;52267;51.984;20.956;2023-05-25T05:22:27;14.20;83.15
65598;SHT31;52267;51.984;20.956;2023-05-25T05:24:54;14.25;83.13
65598;SHT31;52267;51.984;20.956;2023-05-25T05:27:21;14.32;83.01
65598;SHT31;52267;51.984;20.956;2023-05-25T05:29:48;14.38;82.81
65598;SHT31;52267;51.984;20.956;2023-05-25T05:32:16;14.39;82.91
65598;SHT31;52267;51.984;20.956;2023-05-25T05:34:43;14.41;82.87
65598;SHT31;52267;51.984;20.956;2023-05-25T05:37:10;14.43;82.77
65598;SHT31;52267;51.984;20.956;2023-05-25T05:39:37;14.44;82.66
65598;SHT31;52267;51.984;20.956;2023-05-25T05:42:04;14.47;82.65
65598;SHT31;52267;51.984;20.956;2023-05-25T05:44:32;14.49;82.66
65598;SHT31;52267;51.984;20.956;2023-05-25T05:46:59;14.51;82.69
65598;SHT31;52267;51.984;20.956;2023-05-25T05:49:29;14.49;82.60
65598;SHT31;52267;51.984;20.956;2023-05-25T05:51:57;14.46;82.66
65598;SHT31;52267;51.984;20.956;2023-05-25T05:54:24;14.44;82.72
65598;SHT31;52267;51.984;20.956;2023-05-25T05:56:53;14.45;82.62
65598;SHT31;52267;51.984;20.956;2023-05-25T05:59:20;14.48;82.45
65598;SHT31;52267;51.984;20.956;2023-05-25T06:01:48;14.47;82.61
65598;SHT31;52267;51.984;20.956;2023-05-25T06:04:16;14.49;82.83
65598;SHT31;52267;51.984;20.956;2023-05-25T06:06:44;14.55;82.76
65598;SHT31;52267;51.984;20.956;2023-05-25T06:09:11;14.60;82.67
65598;SHT31;52267;51.984;20.956;2023-05-25T06:11:39;14.62;82.46
65598;SHT31;52267;51.984;20.956;2023-05-25T06:14:06;14.62;82.51
65598;SHT31;52267;51.984;20.956;2023-05-25T06:16:36;14.61;82.87
65598;SHT31;52267;51.984;20.956;2023-05-25T06:19:03;14.63;82.66
65598;SHT31;52267;51.984;20.956;2023-05-25T06:21:30;14.62;82.65
65598;SHT31;52267;51.984;20.956;2023-05-25T06:23:57;14.60;82.95
65598;SHT31;52267;51.984;20.956;2023-05-25T06:26:24;14.59;82.94
65598;SHT31;52267;51.984;20.956;2023-05-25T06:28:52;14.64;82.77
65598;SHT31;52267;51.984;20.956;2023-05-25T06:31:19;14.67;82.94
65598;SHT31;52267;51.984;20.956;2023-05-25T06:33:46;14.67;82.67
65598;SHT31;52267;51.984;20.956;2023-05-25T06:36:13;14.69;82.73
65598;SHT31;52267;51.984;20.956;2023-05-25T06:38:41;14.71;82.61
65598;SHT31;52267;51.984;20.956;2023-05-25T06:41:08;14.73;82.60
65598;SHT31;52267;51.984;20.956;2023-05-25T06:43:38;14.79;82.31
65598;SHT31;52267;51.984;20.956;2023-05-25T06:46:05;14.82;82.14
65598;SHT31;52267;51.984;20.956;2023-05-25T06:48:32;14.85;82.08
65598;SHT31;52267;51.984;20.956;2023-05-25T06:50:59;14.89;81.96
65598;SHT31;52267;51.984;20.956;2023-05-25T06:53:26;14.93;81.95
65598;SHT31;52267;51.984;20.956;2023-05-25T06:55:53;14.98;81.87
65598;SHT31;52267;51.984;20.956;2023-05-25T06:58:20;15.00;81.88
65598;SHT31;52267;51.984;20.956;2023-05-25T07:00:47;15.06;81.83
65598;SHT31;52267;51.984;20.956;2023-05-25T07:03:14;15.10;81.69
65598;SHT31;52267;51.984;20.956;2023-05-25T07:05:42;15.14;81.86
65598;SHT31;52267;51.984;20.956;2023-05-25T07:08:09;15.19;81.59
65598;SHT31;52267;51.984;20.956;2023-05-25T07:10:36;15.25;81.48
65598;SHT31;52267;51.984;20.956;2023-05-25T07:13:03;15.29;81.40
65598;SHT31;52267;51.984;20.956;2023-05-25T07:15:30;15.36;81.24
65598;SHT31;52267;51.984;20.956;2023-05-25T07:17:57;15.43;81.07
65598;SHT31;52267;51.984;20.956;2023-05-25T07:20:24;15.48;80.94
65598;SHT31;52267;51.984;20.956;2023-05-25T07:22:52;15.54;80.79
65598;SHT31;52267;51.984;20.956;2023-05-25T07:25:19;15.52;80.76
65598;SHT31;52267;51.984;20.956;2023-05-25T07:27:47;15.58;80.75
65598;SHT31;52267;51.984;20.956;2023-05-25T07:30:15;15.60;80.54
65598;SHT31;52267;51.984;20.956;2023-05-25T07:32:42;15.63;80.54
65598;SHT31;52267;51.984;20.956;2023-05-25T07:35:09;15.69;80.47
65598;SHT31;52267;51.984;20.956;2023-05-25T07:37:36;15.77;80.30
65598;SHT31;52267;51.984;20.956;2023-05-25T07:40:04;15.83;80.18
65598;SHT31;52267;51.984;20.956;2023-05-25T07:42:32;15.90;80.13
65598;SHT31;52267;51.984;20.956;2023-05-25T07:45:01;15.96;79.96
65598;SHT31;52267;51.984;20.956;2023-05-25T07:47:28;16.00;79.92
65598;SHT31;52267;51.984;20.956;2023-05-25T07:49:55;15.98;79.88
65598;SHT31;52267;51.984;20.956;2023-05-25T07:52:22;15.96;79.81
65598;SHT31;52267;51.984;20.956;2023-05-25T07:54:49;15.96;79.83
65598;SHT31;52267;51.984;20.956;2023-05-25T07:57:16;16.00;79.62
65598;SHT31;52267;51.984;20.956;2023-05-25T07:59:43;16.02;79.64
65598;SHT31;52267;51.984;20.956;2023-05-25T08:02:11;16.09;79.46
65598;SHT31;52267;51.984;20.956;2023-05-25T08:04:38;16.21;79.27
65598;SHT31;52267;51.984;20.956;2023-05-25T08:07:05;16.36;79.04
65598;SHT31;52267;51.984;20.956;2023-05-25T08:09:32;16.53;78.86
65598;SHT31;52267;51.984;20.956;2023-05-25T08:11:59;16.75;78.54
65598;SHT31;52267;51.984;20.956;2023-05-25T08:14:27;17.03;78.27
65598;SHT31;52267;51.984;20.956;2023-05-25T08:16:54;17.21;77.85
65598;SHT31;52267;51.984;20.956;2023-05-25T08:19:21;17.23;77.81
65598;SHT31;52267;51.984;20.956;2023-05-25T08:21:48;17.28;77.83
65598;SHT31;52267;51.984;20.956;2023-05-25T08:24:15;17.30;77.55
65598;SHT31;52267;51.984;20.956;2023-05-25T08:26:42;17.31;77.56
65598;SHT31;52267;51.984;20.956;2023-05-25T08:29:09;17.31;77.39
65598;SHT31;52267;51.984;20.956;2023-05-25T08:31:37;17.35;77.17
65598;SHT31;52267;51.984;20.956;2023-05-25T08:34:04;17.39;76.93
65598;SHT31;52267;51.984;20.956;2023-05-25T08:36:31;17.46;76.92
65598;SHT31;52267;51.984;20.956;2023-05-25T08:38:59;17.54;76.73
65598;SHT31;52267;51.984;20.956;2023-05-25T08:41:26;17.59;76.58
65598;SHT31;52267;51.984;20.956;2023-05-25T08:43:54;17.56;76.42
65598;SHT31;52267;51.984;20.956;2023-05-25T08:46:28;17.58;76.35
65598;SHT31;52267;51.984;20.956;2023-05-25T08:49:11;17.64;76.00
65598;SHT31;52267;51.984;20.956;2023-05-25T08:51:49;17.72;75.70
65598;SHT31;52267;51.984;20.956;2023-05-25T08:54:24;17.78;75.52
65598;SHT31;52267;51.984;20.956;2023-05-25T09:02:49;18.14;75.06
65598;SHT31;52267;51.984;20.956;2023-05-25T09:05:22;18.23;74.79
65598;SHT31;52267;51.984;20.956;2023-05-25T09:07:49;18.33;74.46
65598;SHT31;52267;51.984;20.956;2023-05-25T09:10:19;18.44;74.13
65598;SHT31;52267;51.984;20.956;2023-05-25T09:12:48;18.58;73.75
65598;SHT31;52267;51.984;20.956;2023-05-25T09:15:17;18.73;73.62
65598;SHT31;52267;51.984;20.956;2023-05-25T09:17:44;19.06;73.27
65598;SHT31;52267;51.984;20.956;2023-05-25T09:20:11;19.44;72.40
65598;SHT31;52267;51.984;20.956;2023-05-25T09:22:41;19.85;71.97
65598;SHT31;52267;51.984;20.956;2023-05-25T09:25:10;19.86;71.98
65598;SHT31;52267;51.984;20.956;2023-05-25T09:27:41;19.81;71.19
65598;SHT31;52267;51.984;20.956;2023-05-25T09:30:11;19.83;70.99
65598;SHT31;52267;51.984;20.956;2023-05-25T09:32:39;20.14;70.50
65598;SHT31;52267;51.984;20.956;2023-05-25T09:35:10;20.46;69.78
65598;SHT31;52267;51.984;20.956;2023-05-25T09:37:39;20.46;69.24
65598;SHT31;52267;51.984;20.956;2023-05-25T09:40:08;20.38;69.21
65598;SHT31;52267;51.984;20.956;2023-05-25T09:42:38;20.25;68.77
65598;SHT31;52267;51.984;20.956;2023-05-25T09:45:05;20.27;69.47
65598;SHT31;52267;51.984;20.956;2023-05-25T09:47:34;20.63;68.93
65598;SHT31;52267;51.984;20.956;2023-05-25T09:50:03;21.09;68.16
65598;SHT31;52267;51.984;20.956;2023-05-25T09:52:31;21.24;67.69
65598;SHT31;52267;51.984;20.956;2023-05-25T09:54:58;21.36;67.42
65598;SHT31;52267;51.984;20.956;2023-05-25T09:57:27;21.45;67.80
65598;SHT31;52267;51.984;20.956;2023-05-25T09:59:54;21.64;67.11
65598;SHT31;52267;51.984;20.956;2023-05-25T10:02:22;21.80;67.37
65598;SHT31;52267;51.984;20.956;2023-05-25T10:04:49;21.83;66.97
65598;SHT31;52267;51.984;20.956;2023-05-25T10:07:16;21.86;66.90
65598;SHT31;52267;51.984;20.956;2023-05-25T10:09:44;21.82;66.58
65598;SHT31;52267;51.984;20.956;2023-05-25T10:12:13;21.82;66.65
65598;SHT31;52267;51.984;20.956;2023-05-25T10:14:45;21.76;67.01
65598;SHT31;52267;51.984;20.956;2023-05-25T10:17:20;21.76;66.01
65598;SHT31;52267;51.984;20.956;2023-05-25T10:19:54;21.65;66.27
65598;SHT31;52267;51.984;20.956;2023-05-25T10:22:32;21.51;66.28
65598;SHT31;52267;51.984;20.956;2023-05-25T10:25:27;21.47;65.95
65598;SHT31;52267;51.984;20.956;2023-05-25T10:28:01;21.40;66.40
65598;SHT31;52267;51.984;20.956;2023-05-25T10:30:34;21.28;66.49
65598;SHT31;52267;51.984;20.956;2023-05-25T10:33:02;21.21;66.85
65598;SHT31;52267;51.984;20.956;2023-05-25T10:35:30;21.42;66.75
65598;SHT31;52267;51.984;20.956;2023-05-25T10:37:58;21.63;65.89
65598;SHT31;52267;51.984;20.956;2023-05-25T10:40:27;21.66;66.11
65598;SHT31;52267;51.984;20.956;2023-05-25T10:42:55;21.91;65.77
65598;SHT31;52267;51.984;20.956;2023-05-25T10:45:22;22.26;64.79
65598;SHT31;52267;51.984;20.956;2023-05-25T10:47:50;22.60;64.62
65598;SHT31;52267;51.984;20.956;2023-05-25T10:50:23;22.88;64.37
65598;SHT31;52267;51.984;20.956;2023-05-25T10:52:59;22.84;63.75
65598;SHT31;52267;51.984;20.956;2023-05-25T10:55:41;22.58;63.84
65598;SHT31;52267;51.984;20.956;2023-05-25T10:58:27;22.20;63.75
65598;SHT31;52267;51.984;20.956;2023-05-25T11:01:02;22.06;64.35
65598;SHT31;52267;51.984;20.956;2023-05-25T11:17:11;21.87;65.42
65598;SHT31;52267;51.984;20.956;2023-05-25T11:19:40;21.99;65.63
65598;SHT31;52267;51.984;20.956;2023-05-25T11:22:19;22.36;65.26
65598;SHT31;52267;51.984;20.956;2023-05-25T11:24:50;22.70;64.51
65598;SHT31;52267;51.984;20.956;2023-05-25T11:27:22;23.19;63.30
65598;SHT31;52267;51.984;20.956;2023-05-25T11:29:51;23.54;63.07
65598;SHT31;52267;51.984;20.956;2023-05-25T11:32:19;23.67;61.02
65598;SHT31;52267;51.984;20.956;2023-05-25T11:34:46;23.63;60.99
65598;SHT31;52267;51.984;20.956;2023-05-25T11:37:17;23.86;60.41
65598;SHT31;52267;51.984;20.956;2023-05-25T11:39:48;23.97;59.84
65598;SHT31;52267;51.984;20.956;2023-05-25T11:42:20;24.09;58.26
65598;SHT31;52267;51.984;20.956;2023-05-25T11:44:49;24.14;58.68
65598;SHT31;52267;51.984;20.956;2023-05-25T11:47:19;24.47;58.76
65598;SHT31;52267;51.984;20.956;2023-05-25T11:49:48;24.73;58.00
65598;SHT31;52267;51.984;20.956;2023-05-25T11:52:16;24.73;57.15
65598;SHT31;52267;51.984;20.956;2023-05-25T11:54:45;24.77;58.06
65598;SHT31;52267;51.984;20.956;2023-05-25T11:57:13;24.96;58.02
65598;SHT31;52267;51.984;20.956;2023-05-25T11:59:48;24.82;58.01
65598;SHT31;52267;51.984;20.956;2023-05-25T12:02:17;25.02;58.52
65598;SHT31;52267;51.984;20.956;2023-05-25T12:04:58;24.99;57.56
65598;SHT31;52267;51.984;20.956;2023-05-25T12:07:30;24.94;58.38
65598;SHT31;52267;51.984;20.956;2023-05-25T12:10:07;25.05;58.65
65598;SHT31;52267;51.984;20.956;2023-05-25T12:12:45;25.22;58.09
65598;SHT31;52267;51.984;20.956;2023-05-25T12:15:23;25.49;57.71
65598;SHT31;52267;51.984;20.956;2023-05-25T12:17:52;25.63;56.86
65598;SHT31;52267;51.984;20.956;2023-05-25T12:20:19;25.66;56.05
65598;SHT31;52267;51.984;20.956;2023-05-25T12:22:47;25.51;55.49
65598;SHT31;52267;51.984;20.956;2023-05-25T12:25:17;25.42;56.06
65598;SHT31;52267;51.984;20.956;2023-05-25T12:27:47;25.66;55.92
65598;SHT31;52267;51.984;20.956;2023-05-25T12:30:14;25.84;55.22
65598;SHT31;52267;51.984;20.956;2023-05-25T12:32:54;25.84;54.73
65598;SHT31;52267;51.984;20.956;2023-05-25T12:35:27;25.83;54.50
65598;SHT31;52267;51.984;20.956;2023-05-25T12:38:12;25.90;54.79
65598;SHT31;52267;51.984;20.956;2023-05-25T12:40:42;26.00;54.64
65598;SHT31;52267;51.984;20.956;2023-05-25T12:43:10;26.10;54.34
65598;SHT31;52267;51.984;20.956;2023-05-25T12:45:43;26.22;54.37
65598;SHT31;52267;51.984;20.956;2023-05-25T12:48:10;26.32;54.51
65598;SHT31;52267;51.984;20.956;2023-05-25T12:50:38;26.34;54.98
65598;SHT31;52267;51.984;20.956;2023-05-25T12:53:05;26.51;54.19
65598;SHT31;52267;51.984;20.956;2023-05-25T12:55:32;26.61;54.24
65598;SHT31;52267;51.984;20.956;2023-05-25T12:58:02;26.73;53.26
65598;SHT31;52267;51.984;20.956;2023-05-25T13:00:32;26.86;53.73
65598;SHT31;52267;51.984;20.956;2023-05-25T13:03:02;26.95;52.99
65598;SHT31;52267;51.984;20.956;2023-05-25T13:05:31;26.89;52.06
65598;SHT31;52267;51.984;20.956;2023-05-25T13:08:00;26.73;51.86
65598;SHT31;52267;51.984;20.956;2023-05-25T13:10:29;26.58;52.51
65598;SHT31;52267;51.984;20.956;2023-05-25T13:12:58;26.63;52.71
65598;SHT31;52267;51.984;20.956;2023-05-25T13:15:25;26.68;52.45
65598;SHT31;52267;51.984;20.956;2023-05-25T13:17:53;26.60;51.89
65598;SHT31;52267;51.984;20.956;2023-05-25T13:20:24;26.51;51.23
65598;SHT31;52267;51.984;20.956;2023-05-25T13:22:54;26.41;51.77
65598;SHT31;52267;51.984;20.956;2023-05-25T13:25:22;26.39;51.86
65598;SHT31;52267;51.984;20.956;2023-05-25T13:27:52;26.51;52.45
65598;SHT31;52267;51.984;20.956;2023-05-25T13:30:20;26.58;52.27
65598;SHT31;52267;51.984;20.956;2023-05-25T13:32:48;26.70;51.91
65598;SHT31;52267;51.984;20.956;2023-05-25T13:35:15;26.72;51.68
65598;SHT31;52267;51.984;20.956;2023-05-25T13:38:02;26.75;51.99
65598;SHT31;52267;51.984;20.956;2023-05-25T13:40:29;26.86;52.20
65598;SHT31;52267;51.984;20.956;2023-05-25T13:42:56;26.83;51.68
65598;SHT31;52267;51.984;20.956;2023-05-25T13:45:23;26.89;51.80
65598;SHT31;52267;51.984;20.956;2023-05-25T13:47:50;26.78;51.06
65598;SHT31;52267;51.984;20.956;2023-05-25T13:50:18;26.58;51.03
65598;SHT31;52267;51.984;20.956;2023-05-25T13:52:45;26.49;52.25
65598;SHT31;52267;51.984;20.956;2023-05-25T13:55:12;26.28;52.28
65598;SHT31;52267;51.984;20.956;2023-05-25T13:57:39;26.06;52.54
65598;SHT31;52267;51.984;20.956;2023-05-25T14:00:07;26.13;52.32
65598;SHT31;52267;51.984;20.956;2023-05-25T14:02:35;26.22;52.62
65598;SHT31;52267;51.984;20.956;2023-05-25T14:05:02;26.24;52.17
65598;SHT31;52267;51.984;20.956;2023-05-25T14:07:29;26.23;51.56
65598;SHT31;52267;51.984;20.956;2023-05-25T14:09:58;26.20;51.29
65598;SHT31;52267;51.984;20.956;2023-05-25T14:12:25;26.15;51.86
65598;SHT31;52267;51.984;20.956;2023-05-25T14:14:52;26.02;52.51
65598;SHT31;52267;51.984;20.956;2023-05-25T14:17:19;25.79;52.82
65598;SHT31;52267;51.984;20.956;2023-05-25T14:19:46;25.57;52.91
65598;SHT31;52267;51.984;20.956;2023-05-25T14:22:13;25.71;53.14
65598;SHT31;52267;51.984;20.956;2023-05-25T14:24:40;25.89;52.76
65598;SHT31;52267;51.984;20.956;2023-05-25T14:27:08;26.04;52.57
65598;SHT31;52267;51.984;20.956;2023-05-25T14:29:35;26.18;52.23
65598;SHT31;52267;51.984;20.956;2023-05-25T14:32:02;26.10;51.80
65598;SHT31;52267;51.984;20.956;2023-05-25T14:34:29;26.06;51.86
65598;SHT31;52267;51.984;20.956;2023-05-25T14:36:57;25.99;51.79
65598;SHT31;52267;51.984;20.956;2023-05-25T14:39:24;26.02;51.99
65598;SHT31;52267;51.984;20.956;2023-05-25T14:41:52;25.98;51.99
65598;SHT31;52267;51.984;20.956;2023-05-25T14:44:19;26.04;52.21
65598;SHT31;52267;51.984;20.956;2023-05-25T14:46:46;26.09;52.06
65598;SHT31;52267;51.984;20.956;2023-05-25T14:49:13;26.08;51.77
65598;SHT31;52267;51.984;20.956;2023-05-25T14:51:42;25.88;51.25
65598;SHT31;52267;51.984;20.956;2023-05-25T14:54:09;25.80;51.89
65598;SHT31;52267;51.984;20.956;2023-05-25T14:56:38;25.74;51.70
65598;SHT31;52267;51.984;20.956;2023-05-25T14:59:06;25.67;52.01
65598;SHT31;52267;51.984;20.956;2023-05-25T15:01:33;25.72;52.09
65598;SHT31;52267;51.984;20.956;2023-05-25T15:04:00;25.70;52.38
65598;SHT31;52267;51.984;20.956;2023-05-25T15:06:27;25.74;52.29
65598;SHT31;52267;51.984;20.956;2023-05-25T15:08:55;25.68;52.17
65598;SHT31;52267;51.984;20.956;2023-05-25T15:11:22;25.74;52.46
65598;SHT31;52267;51.984;20.956;2023-05-25T15:13:49;25.82;52.86
65598;SHT31;52267;51.984;20.956;2023-05-25T15:16:16;25.80;52.64
65598;SHT31;52267;51.984;20.956;2023-05-25T15:18:43;25.67;52.52
65598;SHT31;52267;51.984;20.956;2023-05-25T15:21:10;25.57;53.21
65598;SHT31;52267;51.984;20.956;2023-05-25T15:23:38;25.40;53.34
65598;SHT31;52267;51.984;20.956;2023-05-25T15:26:05;25.22;53.61
65598;SHT31;52267;51.984;20.956;2023-05-25T15:28:33;25.12;53.67
65598;SHT31;52267;51.984;20.956;2023-05-25T15:31:01;24.94;53.93
65598;SHT31;52267;51.984;20.956;2023-05-25T15:33:28;24.76;53.75
65598;SHT31;52267;51.984;20.956;2023-05-25T15:35:56;24.76;53.89
65598;SHT31;52267;51.984;20.956;2023-05-25T15:38:23;24.83;54.21
65598;SHT31;52267;51.984;20.956;2023-05-25T15:40:50;24.87;54.49
65598;SHT31;52267;51.984;20.956;2023-05-25T15:43:17;24.80;54.65
65598;SHT31;52267;51.984;20.956;2023-05-25T15:45:44;24.80;54.72